Skardu Weather



Skardu's Current Weather

Temprature 8.21o broken clouds

broken clouds

Rain: 0 %

Min Temprature8.21o
Max Temprature8.21o
Humidity24
Wind Speed2.22 m/h
Sun Rise06:05:27
Sun Set17:19:43
Current Time: 18-Oct-2019 15:54:09
Lat/Lon: 35.29, 75.63




Skardu's Geo Location



Skardu's Weather Forecast

Time Overall Temp Min Temp Max Temp Humidity Wind Speed Rain
18-Oct-2019 (Fri)
17:00:00 broken clouds 7.710 7.710 8.210 24 2.22 m/h 0 %
20:00:00 light snow 4.130 4.130 4.500 51 3.77 m/h 0 %
23:00:00 light snow 3.630 3.630 3.878 53 3.05 m/h 0 %
19-Oct-2019 (Sat)
02:00:00 broken clouds 2.920 2.920 3.048 54 1.75 m/h 0 %
05:00:00 broken clouds 2.703 2.703 2.703 53 1.6 m/h 0 %
08:00:00 overcast clouds 3.371 3.371 3.371 46 1 m/h 0 %
11:00:00 overcast clouds 5.770 5.770 5.770 32 0.08 m/h 0 %
14:00:00 overcast clouds 6.836 6.836 6.836 26 0.85 m/h 0 %
17:00:00 overcast clouds 6.252 6.252 6.252 30 1.34 m/h 0 %
20:00:00 light snow 4.038 4.038 4.038 47 3.02 m/h 0 %
23:00:00 light snow 3.207 3.207 3.207 50 1.8 m/h 0 %
20-Oct-2019 (Sun)
02:00:00 clear sky 1.927 1.927 1.927 50 1.24 m/h 0 %
05:00:00 clear sky 0.624 0.624 0.624 51 0.93 m/h 0 %
08:00:00 clear sky 2.792 2.792 2.792 38 0.84 m/h 0 %
11:00:00 clear sky 5.360 5.360 5.360 32 0.57 m/h 0 %
14:00:00 clear sky 7.162 7.162 7.162 24 0.88 m/h 0 %
17:00:00 scattered clouds 7.008 7.008 7.008 23 0.74 m/h 0 %
20:00:00 broken clouds 5.922 5.922 5.922 31 0.69 m/h 0 %
23:00:00 broken clouds 5.097 5.097 5.097 35 1.08 m/h 0 %
21-Oct-2019 (Mon)
02:00:00 overcast clouds 3.060 3.060 3.060 46 2.11 m/h 0 %
05:00:00 overcast clouds 1.721 1.721 1.721 53 1.68 m/h 0 %
08:00:00 scattered clouds 3.089 3.089 3.089 43 0.32 m/h 0 %
11:00:00 few clouds 5.797 5.797 5.797 27 0.67 m/h 0 %
14:00:00 scattered clouds 7.265 7.265 7.265 20 1.13 m/h 0 %
17:00:00 light snow 5.604 5.604 5.604 33 2.99 m/h 0 %
20:00:00 overcast clouds 4.254 4.254 4.254 41 1.43 m/h 0 %
23:00:00 overcast clouds 3.780 3.780 3.780 43 0.21 m/h 0 %
22-Oct-2019 (Tue)
02:00:00 light snow 2.606 2.606 2.606 47 1.1 m/h 0 %
05:00:00 light snow 0.919 0.919 0.919 52 0.67 m/h 0 %
08:00:00 broken clouds 2.892 2.892 2.892 41 0.6 m/h 0 %
11:00:00 broken clouds 5.309 5.309 5.309 28 0.95 m/h 0 %
14:00:00 overcast clouds 6.789 6.789 6.789 23 0.95 m/h 0 %
17:00:00 overcast clouds 6.212 6.212 6.212 27 2.53 m/h 0 %
20:00:00 overcast clouds 4.850 4.850 4.850 37 1.17 m/h 0 %
23:00:00 overcast clouds 3.889 3.889 3.889 43 1.1 m/h 0 %
23-Oct-2019 (Wed)
02:00:00 light snow 3.746 3.746 3.746 40 0.54 m/h 0 %
05:00:00 light snow 1.987 1.987 1.987 51 2.31 m/h 0 %
08:00:00 light snow 1.549 1.549 1.549 54 2.55 m/h 0 %
11:00:00 light snow 3.585 3.585 3.585 45 1.91 m/h 0 %
14:00:00 light snow 6.329 6.329 6.329 30 2.58 m/h 0 %

Famous Cities (61)